Time;durP1;ratioP1;P1;durP2;ratioP2;P2;SDS_P1;SDS_P2;PMS_P1;PMS_P2;Temp;Humidity;BMP_temperature;BMP_pressure;BME280_temperature;BME280_humidity;BME280_pressure;Samples;Min_cycle;Max_cycle;Signal;HPM_P1;HPM_P2
2023/03/01 00:01:07;;;;;;;4.73;3.63;;;2.90;99.90;;;;;;5038415;28;20259;-61
2023/03/01 00:03:34;;;;;;;6.43;4.10;;;2.80;99.90;;;;;;5034459;28;20203;-61
2023/03/01 00:06:02;;;;;;;4.57;3.70;;;2.90;99.90;;;;;;5035749;28;20724;-61
2023/03/01 00:08:33;;;;;;;5.37;3.90;;;2.90;99.90;;;;;;5030645;28;20682;-61
2023/03/01 00:11:09;;;;;;;5.80;3.73;;;2.90;99.90;;;;;;5032205;28;20248;-61
2023/03/01 00:13:36;;;;;;;4.63;3.53;;;2.70;99.90;;;;;;5035625;28;20209;-62
2023/03/01 00:16:06;;;;;;;4.47;3.43;;;2.80;99.90;;;;;;5031726;28;20238;-61
2023/03/01 00:18:32;;;;;;;6.40;3.93;;;2.70;99.90;;;;;;5030041;28;20737;-65
2023/03/01 00:20:59;;;;;;;5.03;4.10;;;2.60;99.90;;;;;;5036694;28;20651;-61
2023/03/01 00:23:27;;;;;;;5.93;4.23;;;2.70;99.90;;;;;;5036540;28;20208;-61
2023/03/01 00:25:54;;;;;;;5.47;3.60;;;2.60;99.90;;;;;;5031262;28;20231;-61
2023/03/01 00:28:21;;;;;;;5.97;3.80;;;2.60;99.90;;;;;;5029970;28;20326;-61
2023/03/01 00:30:48;;;;;;;5.50;4.10;;;2.70;99.90;;;;;;5035951;28;20236;-61
2023/03/01 00:33:15;;;;;;;5.00;4.20;;;2.60;99.90;;;;;;5034080;28;20776;-61
2023/03/01 00:35:42;;;;;;;6.67;4.20;;;2.80;99.90;;;;;;5039187;28;20195;-61
2023/03/01 00:38:09;;;;;;;4.70;4.00;;;2.60;99.90;;;;;;5036729;28;20633;-61
2023/03/01 00:40:36;;;;;;;6.10;4.30;;;2.50;99.90;;;;;;5037089;28;20208;-62
2023/03/01 00:43:04;;;;;;;6.27;3.93;;;2.50;99.90;;;;;;5040324;28;20721;-62
2023/03/01 00:45:32;;;;;;;5.50;4.27;;;2.40;99.90;;;;;;5041669;28;20200;-62
2023/03/01 00:47:59;;;;;;;5.30;4.20;;;2.30;99.90;;;;;;5039075;28;21937;-63
2023/03/01 00:50:26;;;;;;;4.40;3.70;;;2.30;99.90;;;;;;5039869;28;20249;-60
2023/03/01 00:52:56;;;;;;;5.13;4.00;;;2.40;99.90;;;;;;5037193;28;20243;-62
2023/03/01 00:55:23;;;;;;;4.90;4.40;;;2.50;99.90;;;;;;5052124;28;20298;-61
2023/03/01 00:57:50;;;;;;;6.47;4.10;;;2.40;99.90;;;;;;5032998;28;20239;-61
2023/03/01 01:00:17;;;;;;;8.07;4.00;;;2.30;99.90;;;;;;5034717;28;20205;-61
2023/03/01 01:02:44;;;;;;;7.07;4.53;;;2.20;99.90;;;;;;5035865;28;20220;-61
2023/03/01 01:05:13;;;;;;;5.73;4.00;;;2.20;99.90;;;;;;5035013;28;20303;-61
2023/03/01 01:07:41;;;;;;;7.83;4.27;;;2.10;99.90;;;;;;5039173;28;20262;-62
2023/03/01 01:10:12;;;;;;;7.23;4.30;;;2.10;99.90;;;;;;5035541;28;20242;-62
2023/03/01 01:12:39;;;;;;;5.70;4.13;;;2.10;99.90;;;;;;5040187;28;20215;-61
2023/03/01 01:15:06;;;;;;;6.40;4.20;;;2.30;99.90;;;;;;5035446;28;20211;-66
2023/03/01 01:17:33;;;;;;;5.30;3.80;;;2.20;99.90;;;;;;5033969;28;20653;-63
2023/03/01 01:20:00;;;;;;;9.60;5.20;;;2.20;99.90;;;;;;5036832;28;20281;-62
2023/03/01 01:22:27;;;;;;;6.43;4.53;;;2.10;99.90;;;;;;5040927;28;20312;-61
2023/03/01 01:24:54;;;;;;;5.63;4.17;;;2.20;99.90;;;;;;5053020;28;20309;-61
2023/03/01 01:27:20;;;;;;;6.03;4.30;;;2.10;99.90;;;;;;5038695;28;20229;-61
2023/03/01 01:29:47;;;;;;;6.37;4.30;;;2.20;99.90;;;;;;5038775;28;20588;-61
2023/03/01 01:32:14;;;;;;;5.70;4.17;;;2.10;99.90;;;;;;5040222;28;20565;-61
2023/03/01 01:34:41;;;;;;;5.17;4.17;;;2.00;99.90;;;;;;5037724;28;20229;-61
2023/03/01 01:37:07;;;;;;;6.20;3.90;;;2.10;99.90;;;;;;5037165;28;20279;-62
2023/03/01 01:39:35;;;;;;;9.47;4.50;;;2.00;99.90;;;;;;5033724;28;20633;-61
2023/03/01 01:42:02;;;;;;;6.93;4.33;;;2.00;99.90;;;;;;5032700;28;20727;-61
2023/03/01 01:44:30;;;;;;;6.33;4.17;;;2.10;99.90;;;;;;5036270;28;20621;-61
2023/03/01 01:47:12;;;;;;;5.47;4.30;;;2.00;99.90;;;;;;5041562;28;20275;-62
2023/03/01 01:49:50;;;;;;;9.40;4.73;;;2.00;99.90;;;;;;5035238;28;20235;-61
2023/03/01 01:52:20;;;;;;;6.13;4.20;;;2.10;99.90;;;;;;5038247;28;20211;-61
2023/03/01 01:55:06;;;;;;;6.17;4.10;;;2.00;99.90;;;;;;5039178;28;20299;-61
2023/03/01 01:57:47;;;;;;;8.33;4.50;;;1.90;99.90;;;;;;5043668;28;20376;-61
2023/03/01 02:00:18;;;;;;;6.33;4.50;;;1.90;99.90;;;;;;5045419;28;20208;-61
2023/03/01 02:02:48;;;;;;;6.03;4.00;;;2.00;99.90;;;;;;5039508;28;20243;-61
2023/03/01 02:05:22;;;;;;;7.47;4.40;;;2.00;99.90;;;;;;5039803;28;20213;-61
2023/03/01 02:07:50;;;;;;;6.10;4.87;;;2.10;99.90;;;;;;5036713;28;20554;-61
2023/03/01 02:10:17;;;;;;;5.37;4.77;;;1.90;99.90;;;;;;5036133;28;20230;-61
2023/03/01 02:12:45;;;;;;;6.63;4.27;;;2.00;99.90;;;;;;5038399;28;20217;-61
2023/03/01 02:15:13;;;;;;;6.47;4.90;;;2.00;99.90;;;;;;5034528;28;20236;-61
2023/03/01 02:17:40;;;;;;;8.63;4.37;;;1.90;99.90;;;;;;5036963;28;20683;-62
2023/03/01 02:20:41;;;;;;;6.63;4.37;;;1.90;99.90;;;;;;5039916;28;20678;-62
2023/03/01 02:23:08;;;;;;;4.80;4.00;;;2.00;99.90;;;;;;5032185;28;20220;-61
2023/03/01 02:25:50;;;;;;;8.80;4.53;;;2.10;99.90;;;;;;5038496;28;20205;-61
2023/03/01 02:28:17;;;;;;;7.20;4.37;;;2.10;99.90;;;;;;5036582;28;20254;-61
2023/03/01 02:33:35;;;;;;;5.90;3.93;;;1.90;99.90;;;;;;5038590;28;20658;-61
2023/03/01 02:36:15;;;;;;;6.77;4.20;;;1.90;99.90;;;;;;5039684;28;20290;-61
2023/03/01 02:38:43;;;;;;;5.90;4.47;;;1.80;99.90;;;;;;5037019;28;20578;-60
2023/03/01 02:41:14;;;;;;;6.43;4.40;;;1.80;99.90;;;;;;5040246;28;20201;-61
2023/03/01 02:43:42;;;;;;;6.97;3.60;;;1.80;99.90;;;;;;5037394;28;20195;-61
2023/03/01 02:46:19;;;;;;;5.30;3.90;;;1.80;99.90;;;;;;5033014;28;20270;-61
2023/03/01 02:48:51;;;;;;;6.67;4.40;;;1.80;99.90;;;;;;5034229;28;20299;-61
2023/03/01 02:51:37;;;;;;;4.83;3.93;;;1.70;99.90;;;;;;5036959;28;20201;-61
2023/03/01 02:54:07;;;;;;;6.23;4.13;;;1.70;99.90;;;;;;5034100;28;20852;-61
2023/03/01 02:56:35;;;;;;;7.23;4.70;;;1.70;99.90;;;;;;5034831;28;20304;-61
2023/03/01 02:59:03;;;;;;;5.57;4.37;;;1.70;99.90;;;;;;5035493;28;20201;-64
2023/03/01 03:01:36;;;;;;;6.07;4.17;;;1.50;99.90;;;;;;5031866;28;20570;-61
2023/03/01 03:04:09;;;;;;;5.10;3.90;;;1.60;99.90;;;;;;5038032;28;20695;-61
2023/03/01 03:06:37;;;;;;;6.80;4.77;;;1.60;99.90;;;;;;5036244;28;20563;-61
2023/03/01 03:09:05;;;;;;;6.93;4.90;;;1.50;99.90;;;;;;5034650;28;20301;-61
2023/03/01 03:11:32;;;;;;;4.93;3.93;;;1.50;99.90;;;;;;5037512;28;20255;-61
2023/03/01 03:13:59;;;;;;;6.90;4.57;;;1.50;99.90;;;;;;5036863;28;20205;-61
2023/03/01 03:16:26;;;;;;;7.80;4.00;;;1.40;99.90;;;;;;5037597;28;20200;-61
2023/03/01 03:18:53;;;;;;;7.63;4.80;;;1.40;99.90;;;;;;5035685;28;20283;-61
2023/03/01 03:21:20;;;;;;;6.47;4.30;;;1.40;99.90;;;;;;5038539;28;20206;-61
2023/03/01 03:23:47;;;;;;;6.87;4.47;;;1.40;99.90;;;;;;5036196;28;20286;-61
2023/03/01 03:26:14;;;;;;;5.77;4.50;;;1.50;99.90;;;;;;5037237;28;20737;-61
2023/03/01 03:28:42;;;;;;;7.00;4.47;;;1.40;99.90;;;;;;5033835;28;20637;-61
2023/03/01 03:31:09;;;;;;;6.30;4.47;;;1.60;99.90;;;;;;5037507;28;20217;-61
2023/03/01 03:33:36;;;;;;;6.07;4.53;;;1.40;99.90;;;;;;5036832;28;20225;-61
2023/03/01 03:36:04;;;;;;;5.77;4.10;;;1.40;99.90;;;;;;5038957;28;20228;-61
2023/03/01 03:38:31;;;;;;;6.97;4.20;;;1.20;99.90;;;;;;5036397;28;20200;-62
2023/03/01 03:41:04;;;;;;;9.67;3.87;;;1.20;99.90;;;;;;5037135;28;20284;-61
2023/03/01 03:43:34;;;;;;;6.37;4.47;;;1.20;99.90;;;;;;5035795;28;20648;-62
2023/03/01 03:46:05;;;;;;;6.67;4.07;;;1.20;99.90;;;;;;5037562;28;20291;-61
2023/03/01 03:48:44;;;;;;;5.20;4.03;;;1.20;99.90;;;;;;5040494;28;20196;-61
2023/03/01 03:51:16;;;;;;;5.93;4.17;;;1.10;99.90;;;;;;5038125;28;20207;-61
2023/03/01 03:53:44;;;;;;;7.17;4.90;;;1.10;99.90;;;;;;5036373;28;20207;-61
2023/03/01 03:56:12;;;;;;;5.80;3.77;;;1.00;99.90;;;;;;5035102;28;20288;-61
2023/03/01 03:58:39;;;;;;;6.37;3.97;;;1.10;99.90;;;;;;5028730;28;20204;-61
2023/03/01 04:01:06;;;;;;;5.77;4.43;;;1.00;99.90;;;;;;5034020;28;20295;-60
2023/03/01 04:03:34;;;;;;;6.30;4.07;;;1.00;99.90;;;;;;5032114;28;20253;-61
2023/03/01 04:06:02;;;;;;;5.73;4.37;;;0.90;99.90;;;;;;5036986;28;20612;-61
2023/03/01 04:08:29;;;;;;;6.50;4.07;;;1.00;99.90;;;;;;5035870;28;20197;-62
2023/03/01 04:11:25;;;;;;;5.00;4.17;;;0.90;99.90;;;;;;5037091;28;20232;-61
2023/03/01 04:13:52;;;;;;;6.53;4.23;;;0.80;99.90;;;;;;5036317;28;20213;-61
2023/03/01 04:16:19;;;;;;;5.27;3.97;;;0.80;99.90;;;;;;5039724;28;20213;-62
2023/03/01 04:18:46;;;;;;;5.37;3.67;;;0.90;99.90;;;;;;5039728;28;20453;-62
2023/03/01 04:21:13;;;;;;;5.63;4.87;;;0.90;99.90;;;;;;5037806;28;20248;-61
2023/03/01 04:23:40;;;;;;;6.63;4.10;;;0.90;99.90;;;;;;5038869;28;20216;-61
2023/03/01 04:26:08;;;;;;;8.50;4.70;;;0.90;99.90;;;;;;5039059;28;20763;-61
2023/03/01 04:28:38;;;;;;;7.33;4.47;;;0.90;99.90;;;;;;5037795;28;20224;-61
2023/03/01 04:31:15;;;;;;;6.83;4.20;;;0.90;99.90;;;;;;5036959;28;20238;-61
2023/03/01 04:33:53;;;;;;;6.10;4.13;;;0.80;99.90;;;;;;5039053;28;20203;-61
2023/03/01 04:36:26;;;;;;;4.90;4.40;;;0.90;99.90;;;;;;5040860;28;20711;-62
2023/03/01 04:38:54;;;;;;;5.23;4.13;;;0.90;99.90;;;;;;5037679;28;20650;-61
2023/03/01 04:41:23;;;;;;;3.97;3.50;;;0.90;99.90;;;;;;5040837;28;20197;-61
2023/03/01 04:43:50;;;;;;;6.37;3.60;;;0.90;99.90;;;;;;5032636;28;20817;-60
2023/03/01 04:46:19;;;;;;;7.60;4.57;;;1.00;99.90;;;;;;5035643;28;20285;-61
2023/03/01 04:48:47;;;;;;;7.67;3.97;;;1.00;99.90;;;;;;5036747;28;20217;-62
2023/03/01 04:51:14;;;;;;;4.77;4.23;;;1.00;99.90;;;;;;5038764;28;20211;-63
2023/03/01 04:53:42;;;;;;;5.63;4.03;;;1.00;99.90;;;;;;5037716;28;20573;-61
2023/03/01 04:56:10;;;;;;;5.20;4.17;;;1.10;99.90;;;;;;5038675;28;20645;-61
2023/03/01 04:58:36;;;;;;;5.67;3.80;;;1.10;99.90;;;;;;5034852;28;20298;-61
2023/03/01 05:01:14;;;;;;;6.00;4.33;;;1.10;99.90;;;;;;5036954;28;20209;-61
2023/03/01 05:03:47;;;;;;;4.73;3.93;;;1.10;99.90;;;;;;5054040;28;20213;-60
2023/03/01 05:06:14;;;;;;;5.90;4.10;;;1.10;99.90;;;;;;5038390;28;20252;-61
2023/03/01 05:08:41;;;;;;;6.67;4.20;;;1.00;99.90;;;;;;5037238;28;20296;-61
2023/03/01 05:11:09;;;;;;;6.17;4.20;;;0.90;99.90;;;;;;5038311;28;20748;-61
2023/03/01 05:13:37;;;;;;;5.90;4.23;;;0.90;99.90;;;;;;5032807;28;20210;-61
2023/03/01 05:16:05;;;;;;;4.83;3.97;;;0.90;99.90;;;;;;5037139;28;20256;-61
2023/03/01 05:18:33;;;;;;;5.47;4.40;;;0.90;99.90;;;;;;5039036;28;20198;-61
2023/03/01 05:21:09;;;;;;;6.17;4.27;;;1.00;99.90;;;;;;5040509;28;20661;-61
2023/03/01 05:23:36;;;;;;;4.30;3.80;;;1.10;99.90;;;;;;5038815;28;20303;-61
2023/03/01 05:26:05;;;;;;;4.50;3.80;;;1.00;99.90;;;;;;5038391;28;20206;-61
2023/03/01 05:28:37;;;;;;;6.63;3.90;;;0.90;99.90;;;;;;5036573;28;20205;-61
2023/03/01 05:31:09;;;;;;;5.37;4.20;;;0.90;99.90;;;;;;5039214;28;20208;-60
2023/03/01 05:33:40;;;;;;;4.90;3.60;;;0.90;99.90;;;;;;5034750;28;20203;-62
2023/03/01 05:36:09;;;;;;;4.93;3.70;;;0.80;99.90;;;;;;5038342;28;20228;-62
2023/03/01 05:38:36;;;;;;;5.47;4.17;;;0.80;99.90;;;;;;5037368;28;20262;-61
2023/03/01 05:41:03;;;;;;;5.00;3.67;;;0.80;99.90;;;;;;5040976;28;20274;-61
2023/03/01 05:43:34;;;;;;;5.33;3.60;;;0.80;99.90;;;;;;5037660;28;20298;-62
2023/03/01 05:46:01;;;;;;;6.17;4.27;;;0.70;99.90;;;;;;5039538;28;20207;-61
2023/03/01 05:48:29;;;;;;;8.20;3.70;;;0.70;99.90;;;;;;5037292;28;20290;-61
2023/03/01 05:51:00;;;;;;;6.63;3.97;;;0.70;99.90;;;;;;5040461;28;20255;-61
2023/03/01 05:53:27;;;;;;;6.10;4.10;;;0.70;99.90;;;;;;5038009;28;20255;-61
2023/03/01 05:55:53;;;;;;;6.60;4.13;;;0.70;99.90;;;;;;5039961;28;20240;-61
2023/03/01 05:58:21;;;;;;;5.47;3.70;;;0.70;99.90;;;;;;5031868;28;20295;-61
2023/03/01 06:00:49;;;;;;;4.23;3.83;;;0.70;99.90;;;;;;5036353;28;20227;-61
2023/03/01 06:03:17;;;;;;;4.90;4.00;;;0.70;99.90;;;;;;5036303;28;20220;-62
2023/03/01 06:05:44;;;;;;;7.00;4.43;;;0.70;99.90;;;;;;5039325;28;20204;-60
2023/03/01 06:08:11;;;;;;;6.73;4.10;;;0.60;99.90;;;;;;5033145;28;20207;-61
2023/03/01 06:10:39;;;;;;;8.90;4.63;;;0.70;99.90;;;;;;5038102;28;20246;-61
2023/03/01 06:13:06;;;;;;;11.93;4.23;;;0.60;99.90;;;;;;5032076;28;20207;-61
2023/03/01 06:15:33;;;;;;;7.03;4.40;;;0.60;99.90;;;;;;5034134;28;20670;-61
2023/03/01 06:18:00;;;;;;;5.63;4.50;;;0.60;99.90;;;;;;5032732;28;20208;-61
2023/03/01 06:20:28;;;;;;;4.77;3.93;;;0.60;99.90;;;;;;5036500;28;20342;-62
2023/03/01 06:22:55;;;;;;;5.47;3.90;;;0.70;99.90;;;;;;5037254;28;20208;-63
2023/03/01 06:25:24;;;;;;;7.03;4.40;;;0.70;99.90;;;;;;5033035;28;20253;-61
2023/03/01 06:27:54;;;;;;;5.73;4.40;;;0.70;99.90;;;;;;5034990;28;20208;-61
2023/03/01 06:30:23;;;;;;;6.13;4.77;;;0.80;99.90;;;;;;5034912;28;20200;-61
2023/03/01 06:32:50;;;;;;;5.77;4.43;;;0.60;99.90;;;;;;5038102;28;20234;-61
2023/03/01 06:35:18;;;;;;;5.83;4.33;;;0.60;99.90;;;;;;5037282;28;20555;-61
2023/03/01 06:37:47;;;;;;;5.93;4.07;;;0.60;99.90;;;;;;5032353;28;20318;-62
2023/03/01 06:40:15;;;;;;;9.67;4.63;;;0.50;99.90;;;;;;5039756;28;20192;-61
2023/03/01 06:42:43;;;;;;;5.83;4.30;;;0.60;99.90;;;;;;5036622;28;20226;-61
2023/03/01 06:45:11;;;;;;;5.20;3.90;;;0.50;99.90;;;;;;5032803;28;20677;-61
2023/03/01 06:47:38;;;;;;;10.63;6.33;;;0.50;99.90;;;;;;5036857;28;20258;-61
2023/03/01 06:50:05;;;;;;;9.50;6.87;;;0.50;99.90;;;;;;5037358;28;20295;-61
2023/03/01 06:52:32;;;;;;;10.50;6.90;;;0.60;99.90;;;;;;5038151;28;20211;-61
2023/03/01 06:54:59;;;;;;;12.27;7.07;;;0.60;99.90;;;;;;5032448;28;20294;-61
2023/03/01 06:57:27;;;;;;;12.87;5.77;;;0.70;99.90;;;;;;5033819;28;20563;-61
2023/03/01 06:59:53;;;;;;;12.03;5.50;;;0.80;99.90;;;;;;5034157;28;21890;-61
2023/03/01 07:02:20;;;;;;;12.73;5.47;;;0.90;99.90;;;;;;5025106;28;20695;-68
2023/03/01 07:04:52;;;;;;;10.30;5.50;;;1.10;99.90;;;;;;5032909;28;20239;-62
2023/03/01 07:07:18;;;;;;;9.80;6.00;;;1.10;99.90;;;;;;5036808;28;20448;-61
2023/03/01 07:09:46;;;;;;;10.03;6.43;;;1.20;99.90;;;;;;5036123;28;20242;-60
2023/03/01 07:12:13;;;;;;;9.40;6.50;;;1.20;99.90;;;;;;5036090;28;20207;-61
2023/03/01 07:14:39;;;;;;;8.07;6.10;;;1.20;99.90;;;;;;5036287;28;20199;-61
2023/03/01 07:17:07;;;;;;;7.03;4.77;;;1.30;99.90;;;;;;5038000;28;20335;-60
2023/03/01 07:19:34;;;;;;;9.20;5.30;;;1.40;99.90;;;;;;5033776;28;20218;-61
2023/03/01 07:22:01;;;;;;;10.57;4.43;;;1.40;99.90;;;;;;5037295;28;20231;-61
2023/03/01 07:24:28;;;;;;;7.43;5.40;;;1.50;99.90;;;;;;5032470;28;20570;-61
2023/03/01 07:26:55;;;;;;;7.78;5.00;;;1.50;99.90;;;;;;4689414;28;10001048;-61
2023/03/01 07:29:22;;;;;;;6.57;5.13;;;1.80;99.90;;;;;;5015757;28;20303;-62
2023/03/01 07:31:48;;;;;;;8.07;5.17;;;1.90;99.90;;;;;;5023726;28;20229;-61
2023/03/01 07:34:15;;;;;;;9.93;5.27;;;2.10;99.90;;;;;;5026057;28;20204;-61
2023/03/01 07:36:44;;;;;;;6.13;4.73;;;2.40;99.90;;;;;;5027060;28;20259;-62
2023/03/01 07:39:11;;;;;;;7.17;5.10;;;2.60;99.90;;;;;;5027241;28;20216;-62
2023/03/01 07:41:38;;;;;;;7.63;4.77;;;2.90;99.90;;;;;;5029587;28;20212;-61
2023/03/01 07:44:05;;;;;;;6.63;5.10;;;3.20;99.90;;;;;;5029519;28;20410;-61
2023/03/01 07:46:32;;;;;;;5.30;4.50;;;3.30;99.90;;;;;;5023622;28;20199;-63
2023/03/01 07:48:59;;;;;;;8.53;5.17;;;3.30;99.90;;;;;;5025445;28;20206;-61
2023/03/01 07:51:26;;;;;;;6.60;4.53;;;3.40;99.90;;;;;;5019774;28;20701;-61
2023/03/01 07:53:53;;;;;;;10.10;4.53;;;3.60;99.90;;;;;;5025784;28;20555;-61
2023/03/01 07:56:21;;;;;;;5.37;4.37;;;3.60;99.90;;;;;;5026707;28;20212;-62
2023/03/01 07:58:48;;;;;;;7.63;5.23;;;3.70;99.90;;;;;;5020970;28;20229;-62
2023/03/01 08:01:19;;;;;;;7.33;5.00;;;4.00;99.90;;;;;;5020904;28;21032;-62
2023/03/01 08:03:46;;;;;;;9.00;5.33;;;4.10;99.90;;;;;;5027138;28;20213;-62
2023/03/01 08:06:16;;;;;;;6.73;4.83;;;4.30;99.90;;;;;;5025241;28;20252;-63
2023/03/01 08:08:43;;;;;;;8.50;5.33;;;4.50;99.90;;;;;;5018949;28;20287;-63
2023/03/01 08:11:12;;;;;;;6.10;4.57;;;4.50;99.90;;;;;;5018483;28;20271;-63
2023/03/01 08:13:39;;;;;;;9.83;5.07;;;4.70;99.90;;;;;;5026476;28;20200;-62
2023/03/01 08:16:12;;;;;;;6.70;4.63;;;5.10;99.90;;;;;;5029407;28;20306;-63
2023/03/01 08:18:39;;;;;;;5.90;4.47;;;5.30;99.90;;;;;;5027430;28;20579;-64
2023/03/01 08:21:09;;;;;;;5.87;4.40;;;5.50;99.90;;;;;;5029016;28;20297;-65
2023/03/01 08:23:37;;;;;;;5.67;4.40;;;6.00;99.90;;;;;;5025894;28;20250;-64
2023/03/01 08:26:16;;;;;;;7.77;5.07;;;6.10;99.90;;;;;;5033695;28;20737;-61
2023/03/01 08:28:44;;;;;;;10.20;5.27;;;6.00;99.90;;;;;;5025302;28;20196;-62
2023/03/01 08:31:30;;;;;;;8.87;5.00;;;6.50;99.90;;;;;;5026053;28;20233;-61
2023/03/01 08:34:01;;;;;;;5.53;4.37;;;6.80;99.90;;;;;;5028490;28;20716;-61
2023/03/01 08:36:30;;;;;;;6.73;4.90;;;7.00;99.90;;;;;;5027529;28;20653;-62
2023/03/01 08:38:58;;;;;;;6.37;5.00;;;7.40;99.90;;;;;;5030031;28;20609;-62
2023/03/01 08:41:25;;;;;;;9.87;4.90;;;7.30;99.90;;;;;;5030087;28;20731;-63
2023/03/01 08:43:58;;;;;;;5.70;4.40;;;6.90;99.90;;;;;;5029643;28;20556;-62
2023/03/01 08:46:27;;;;;;;6.50;4.80;;;7.10;99.90;;;;;;5031304;28;20495;-62
2023/03/01 08:48:54;;;;;;;7.53;4.93;;;7.40;99.90;;;;;;5032372;28;20414;-62
2023/03/01 08:51:21;;;;;;;8.10;4.87;;;7.70;99.90;;;;;;5032479;28;20240;-62
2023/03/01 08:53:49;;;;;;;12.90;5.33;;;7.60;99.90;;;;;;5035325;28;20288;-62
2023/03/01 08:56:18;;;;;;;7.20;4.60;;;7.50;99.90;;;;;;5036514;28;20608;-63
2023/03/01 08:58:46;;;;;;;7.83;5.33;;;7.20;99.90;;;;;;5028643;28;20211;-62
2023/03/01 09:01:16;;;;;;;6.13;4.37;;;7.70;99.90;;;;;;5028347;28;20233;-62
2023/03/01 09:03:44;;;;;;;10.03;4.90;;;7.40;99.90;;;;;;5032977;28;20223;-62
2023/03/01 09:06:12;;;;;;;7.00;5.13;;;8.20;99.90;;;;;;5015350;28;20954;-63
2023/03/01 09:08:44;;;;;;;6.53;4.60;;;8.20;99.90;;;;;;5021912;28;20634;-62
2023/03/01 09:11:13;;;;;;;7.33;5.23;;;8.00;99.90;;;;;;5018797;28;20244;-62
2023/03/01 09:13:40;;;;;;;7.03;5.37;;;8.70;99.90;;;;;;5028048;28;20202;-63
2023/03/01 09:16:12;;;;;;;7.80;4.60;;;8.80;99.90;;;;;;5029178;28;20291;-62
2023/03/01 09:18:40;;;;;;;7.00;4.60;;;8.70;99.90;;;;;;5027385;28;20290;-63
2023/03/01 09:21:09;;;;;;;6.00;4.60;;;8.80;99.90;;;;;;5022488;28;20377;-69
2023/03/01 09:23:38;;;;;;;6.43;5.17;;;9.50;99.90;;;;;;5027877;28;20298;-62
2023/03/01 09:26:10;;;;;;;5.87;5.03;;;9.00;99.90;;;;;;5027819;28;20273;-62
2023/03/01 09:28:38;;;;;;;5.57;4.50;;;9.70;99.90;;;;;;5021542;28;20214;-62
2023/03/01 09:31:05;;;;;;;5.17;4.50;;;9.30;99.90;;;;;;5022463;28;20196;-62
2023/03/01 09:33:33;;;;;;;6.03;4.60;;;8.60;99.90;;;;;;5032043;28;20199;-66
2023/03/01 09:36:06;;;;;;;5.13;4.30;;;9.00;99.90;;;;;;5033274;28;20686;-62
2023/03/01 09:38:34;;;;;;;7.73;4.90;;;9.90;99.90;;;;;;5027802;28;20585;-61
2023/03/01 09:41:01;;;;;;;6.33;4.43;;;10.40;99.90;;;;;;5027352;28;20247;-62
2023/03/01 09:43:44;;;;;;;6.50;4.00;;;10.30;99.90;;;;;;5030700;28;20344;-62
2023/03/01 09:46:16;;;;;;;4.80;4.00;;;9.80;99.90;;;;;;5033536;28;20207;-62
2023/03/01 09:48:50;;;;;;;6.73;4.00;;;9.30;99.90;;;;;;5031524;28;20217;-62
2023/03/01 09:51:22;;;;;;;6.17;4.03;;;9.20;99.90;;;;;;5031120;28;20199;-62
2023/03/01 09:53:49;;;;;;;6.43;3.87;;;9.30;99.90;;;;;;5032276;28;20286;-62
2023/03/01 09:56:34;;;;;;;4.87;3.90;;;9.10;99.90;;;;;;5031425;28;20317;-61
2023/03/01 09:59:19;;;;;;;4.63;3.80;;;8.80;99.90;;;;;;5028386;28;20215;-61
2023/03/01 10:02:21;;;;;;;5.73;3.77;;;8.70;99.90;;;;;;5029328;28;20223;-64
2023/03/01 10:04:54;;;;;;;5.97;3.63;;;9.00;99.90;;;;;;5029607;28;20227;-64
2023/03/01 10:07:27;;;;;;;4.73;4.20;;;9.20;99.90;;;;;;5033158;28;20192;-63
2023/03/01 10:09:54;;;;;;;5.50;4.53;;;9.10;99.90;;;;;;5031482;28;20997;-63
2023/03/01 10:12:27;;;;;;;4.97;4.40;;;8.80;99.90;;;;;;5036447;28;20233;-62
2023/03/01 10:15:16;;;;;;;5.03;4.07;;;9.30;99.90;;;;;;5031690;28;20208;-62
2023/03/01 10:17:58;;;;;;;4.80;4.23;;;9.60;99.90;;;;;;5037012;28;20249;-62
2023/03/01 10:20:29;;;;;;;5.40;3.80;;;9.90;99.90;;;;;;5030886;28;20253;-61
2023/03/01 10:22:56;;;;;;;8.13;4.30;;;10.10;99.90;;;;;;5025384;28;20234;-63
2023/03/01 10:26:00;;;;;;;4.40;3.77;;;10.50;99.90;;;;;;5025553;28;20585;-62
2023/03/01 10:29:00;;;;;;;5.90;4.07;;;10.40;99.90;;;;;;5028186;28;20203;-62
2023/03/01 10:31:50;;;;;;;7.47;4.00;;;9.60;99.90;;;;;;5025343;28;20367;-62
2023/03/01 10:34:31;;;;;;;4.57;4.00;;;9.80;99.90;;;;;;5025614;28;20900;-63
2023/03/01 10:37:12;;;;;;;6.97;4.60;;;9.50;99.90;;;;;;5028722;28;20228;-61
2023/03/01 10:39:56;;;;;;;5.60;4.13;;;9.40;99.90;;;;;;5030352;28;20201;-62
2023/03/01 10:42:32;;;;;;;5.13;3.93;;;9.60;99.90;;;;;;5030910;28;20281;-62
2023/03/01 10:45:20;;;;;;;5.83;3.90;;;9.50;99.90;;;;;;5029043;28;20314;-62
2023/03/01 10:48:03;;;;;;;6.47;4.53;;;9.30;99.90;;;;;;5028421;28;20211;-63
2023/03/01 10:50:31;;;;;;;6.63;4.00;;;9.30;99.90;;;;;;5030340;28;20205;-62
2023/03/01 10:53:01;;;;;;;7.87;4.17;;;9.50;99.90;;;;;;5028140;28;20647;-63
2023/03/01 10:55:38;;;;;;;8.53;3.83;;;9.80;99.90;;;;;;5026851;28;20297;-64
2023/03/01 10:58:22;;;;;;;5.73;3.87;;;9.80;99.90;;;;;;5028821;28;20292;-63
2023/03/01 11:00:52;;;;;;;6.83;4.17;;;9.40;99.90;;;;;;5028087;28;20265;-63
2023/03/01 11:03:24;;;;;;;5.50;4.10;;;9.10;99.90;;;;;;5027740;28;20213;-62
2023/03/01 11:06:12;;;;;;;7.53;4.90;;;9.40;99.90;;;;;;5031221;28;20637;-63
2023/03/01 11:08:43;;;;;;;5.50;4.20;;;9.60;99.90;;;;;;5029218;28;20246;-63
2023/03/01 11:11:33;;;;;;;6.63;4.20;;;9.40;99.90;;;;;;5030452;28;20821;-62
2023/03/01 11:14:24;;;;;;;7.07;4.63;;;9.20;99.90;;;;;;5027574;28;20203;-62
2023/03/01 11:17:32;;;;;;;7.33;4.03;;;9.30;99.90;;;;;;5032198;28;20237;-62
2023/03/01 11:20:13;;;;;;;6.40;3.60;;;9.80;99.90;;;;;;5028581;28;21684;-63
2023/03/01 11:22:50;;;;;;;5.17;4.17;;;9.60;99.90;;;;;;5030408;28;20217;-63
2023/03/01 11:25:19;;;;;;;7.20;4.20;;;10.10;99.90;;;;;;5034086;28;20681;-63
2023/03/01 11:27:46;;;;;;;5.93;4.10;;;10.00;99.90;;;;;;5023089;28;20233;-63
2023/03/01 11:30:27;;;;;;;5.20;3.97;;;10.10;99.90;;;;;;5030799;28;20203;-63
2023/03/01 11:33:10;;;;;;;5.40;3.87;;;10.20;99.90;;;;;;5025833;28;20348;-62
2023/03/01 11:35:43;;;;;;;4.67;3.70;;;10.30;99.90;;;;;;5024770;28;20269;-62
2023/03/01 11:38:33;;;;;;;6.47;3.77;;;10.20;99.90;;;;;;5026232;28;20605;-62
2023/03/01 11:41:18;;;;;;;5.50;3.90;;;10.70;99.90;;;;;;5026477;28;20203;-63
2023/03/01 11:44:09;;;;;;;6.20;4.40;;;10.40;99.90;;;;;;5025570;28;21435;-62
2023/03/01 11:46:58;;;;;;;5.23;3.80;;;10.20;99.90;;;;;;5025961;28;20231;-62
2023/03/01 11:49:44;;;;;;;5.00;4.17;;;10.70;99.90;;;;;;5029905;28;20229;-62
2023/03/01 11:53:00;;;;;;;5.63;4.10;;;10.60;99.90;;;;;;5030091;28;20860;-61
2023/03/01 11:55:47;;;;;;;6.43;4.00;;;10.80;99.90;;;;;;5027198;28;20544;-62
2023/03/01 11:58:29;;;;;;;6.30;4.20;;;11.20;99.90;;;;;;5021166;28;20642;-61
2023/03/01 12:01:15;;;;;;;5.87;4.50;;;11.50;99.90;;;;;;5025390;28;20211;-62
2023/03/01 12:04:01;;;;;;;7.07;5.23;;;11.00;99.90;;;;;;5022849;28;20206;-63
2023/03/01 12:06:44;;;;;;;6.77;5.23;;;10.20;99.90;;;;;;5021418;28;20214;-62
2023/03/01 12:09:17;;;;;;;8.27;4.60;;;10.50;99.90;;;;;;5022459;28;20667;-63
2023/03/01 12:11:56;;;;;;;7.40;5.50;;;10.80;99.90;;;;;;5026455;28;20239;-62
2023/03/01 12:14:41;;;;;;;6.37;4.90;;;10.70;99.90;;;;;;5021643;28;20304;-62
2023/03/01 12:17:27;;;;;;;9.90;5.30;;;11.70;99.90;;;;;;5025386;28;20225;-63
2023/03/01 12:20:30;;;;;;;5.53;4.93;;;12.40;99.90;;;;;;5028991;28;20199;-62
2023/03/01 12:23:23;;;;;;;8.07;4.50;;;12.50;99.90;;;;;;5026748;28;20306;-62
2023/03/01 12:26:05;;;;;;;6.40;4.20;;;12.80;99.90;;;;;;5023589;28;20352;-62
2023/03/01 12:28:56;;;;;;;6.37;4.70;;;12.50;99.90;;;;;;5023973;28;20203;-62
2023/03/01 12:31:44;;;;;;;5.70;4.20;;;11.60;99.90;;;;;;5022473;28;20273;-62
2023/03/01 12:34:39;;;;;;;7.43;4.60;;;12.10;99.90;;;;;;5033322;28;20248;-62
2023/03/01 12:37:15;;;;;;;5.90;4.70;;;11.70;99.90;;;;;;5027292;28;20225;-61
2023/03/01 12:40:03;;;;;;;5.23;4.67;;;12.10;99.90;;;;;;5027428;28;20364;-63
2023/03/01 12:42:51;;;;;;;5.57;4.67;;;12.10;99.90;;;;;;5026751;28;20243;-62
2023/03/01 12:45:21;;;;;;;6.23;4.70;;;11.70;99.90;;;;;;5027133;28;20212;-63
2023/03/01 12:48:04;;;;;;;7.10;4.20;;;11.40;99.90;;;;;;5025385;28;20562;-62
2023/03/01 12:50:42;;;;;;;6.70;4.30;;;11.80;99.90;;;;;;5030683;28;20800;-61
2023/03/01 12:53:28;;;;;;;7.43;3.97;;;12.10;99.90;;;;;;5032299;28;20616;-62
2023/03/01 12:56:00;;;;;;;5.90;4.60;;;11.90;99.90;;;;;;5031751;28;20311;-62
2023/03/01 12:59:23;;;;;;;6.20;4.37;;;12.30;99.90;;;;;;5031793;28;20204;-62
2023/03/01 13:02:09;;;;;;;5.30;4.30;;;11.30;99.90;;;;;;5008684;28;20208;-62
2023/03/01 13:04:57;;;;;;;6.40;4.10;;;11.70;99.90;;;;;;5019554;28;20238;-62
2023/03/01 13:07:43;;;;;;;5.27;4.10;;;11.10;99.90;;;;;;5029974;28;20200;-62
2023/03/01 13:10:20;;;;;;;5.23;3.97;;;10.80;99.90;;;;;;5021901;28;20629;-62
2023/03/01 13:13:01;;;;;;;4.90;3.93;;;10.60;99.90;;;;;;5024641;28;20696;-62
2023/03/01 13:15:36;;;;;;;5.30;4.00;;;11.50;99.90;;;;;;5030686;28;20259;-62
2023/03/01 13:18:11;;;;;;;5.97;4.40;;;11.60;99.90;;;;;;5028023;28;20247;-61
2023/03/01 13:20:41;;;;;;;6.40;4.67;;;11.50;99.90;;;;;;5026864;28;20215;-62
2023/03/01 13:23:31;;;;;;;6.60;4.47;;;12.20;99.90;;;;;;5036411;28;20204;-61
2023/03/01 13:26:13;;;;;;;6.20;3.90;;;11.50;99.90;;;;;;5023397;28;20316;-61